CA-0156 weather

CLOSED Hartney Airport
Manitoba, Canada

Public forecast

Using degrees Celsius for public forecast. Weather courtesy of forecast.io.

METAR (pilot weather report)

Closest report is Brandon Municipal Airport, 35.3 nm (65.3 km) NE. Retrieved 2019/05/25 07:00 UTC (7 minutes ago):

CYBR 250700Z 29007KT 15SM BKN054 07/07 A2971 RMK SC7 SLP075

TAF (pilot weather forecast)

Closest forecast is Brandon Municipal Airport, 35.3 nm (65.3 km) NE. Retrieved 2019/05/25 06:39 UTC (28 minutes ago):

TAF TAF CYBR 250538Z 2506/2518 02008KT P6SM FEW010 BKN030 TEMPO 2506/2510 BKN008 OVC015 FM251000 30005KT P6SM FEW040 TEMPO 2510/2516 2SM BR PROB40 2510/2514 1/2SM FG VV004 FM251600 27008KT P6SM FEW050 RMK NXT FCST BY 251200Z